createdAt,value
2017-12-01T00:00:13.733Z,17.90
2017-12-01T00:02:41.968Z,18.90
2017-12-01T00:05:10.983Z,17.98
2017-12-01T00:07:39.878Z,17.83
2017-12-01T00:10:12.511Z,18.50
2017-12-01T00:12:40.117Z,17.95
2017-12-01T00:15:09.478Z,17.75
2017-12-01T00:17:37.053Z,17.87
2017-12-01T00:20:04.683Z,18.83
2017-12-01T00:22:32.238Z,18.25
2017-12-01T00:25:00.621Z,18.75
2017-12-01T00:27:31.141Z,20.30
2017-12-01T00:29:58.700Z,19.10
2017-12-01T00:32:27.373Z,19.58
2017-12-01T00:34:58.012Z,19.20
2017-12-01T00:37:25.609Z,18.67
2017-12-01T00:39:53.193Z,20.30
2017-12-01T00:42:20.825Z,19.50
2017-12-01T00:47:23.073Z,18.80
2017-12-01T00:49:52.883Z,19.30
2017-12-01T00:52:21.072Z,19.23
2017-12-01T00:54:48.885Z,19.27
2017-12-01T00:57:18.672Z,19.00
2017-12-01T00:59:50.344Z,19.33
2017-12-01T01:02:18.088Z,19.55
2017-12-01T01:04:46.555Z,19.27
2017-12-01T01:07:17.801Z,19.20
2017-12-01T01:09:47.083Z,20.02
2017-12-01T01:12:14.672Z,18.55
2017-12-01T01:14:42.455Z,17.95
2017-12-01T01:17:10.084Z,19.48
2017-12-01T01:19:37.662Z,19.75
2017-12-01T01:22:05.244Z,18.17
2017-12-01T01:24:34.000Z,19.35
2017-12-01T01:27:02.938Z,19.40
2017-12-01T01:29:31.312Z,20.05
2017-12-01T01:31:58.912Z,20.25
2017-12-01T01:34:26.510Z,19.52
2017-12-01T01:36:55.094Z,20.83
2017-12-01T01:39:22.631Z,19.10
2017-12-01T01:41:51.126Z,19.27
2017-12-01T01:44:18.717Z,19.45
2017-12-01T01:46:48.547Z,18.25
2017-12-01T01:49:16.155Z,19.15
2017-12-01T01:51:43.765Z,19.42
2017-12-01T01:54:11.313Z,19.20
2017-12-01T01:56:41.227Z,20.00
2017-12-01T01:59:08.828Z,19.17
2017-12-01T02:01:36.409Z,19.37
2017-12-01T02:04:04.796Z,18.50
2017-12-01T02:06:33.550Z,18.95
2017-12-01T02:09:01.155Z,18.50
2017-12-01T02:11:28.768Z,16.90
2017-12-01T02:13:57.414Z,17.90
2017-12-01T02:16:28.971Z,18.10
2017-12-01T02:18:58.898Z,17.25
2017-12-01T02:21:27.253Z,18.92
2017-12-01T02:23:54.856Z,17.33
2017-12-01T02:26:22.463Z,18.90
2017-12-01T02:28:55.229Z,18.02
2017-12-01T02:31:22.840Z,19.08
2017-12-01T02:33:51.486Z,19.35
2017-12-01T02:36:20.063Z,19.85
2017-12-01T02:38:47.785Z,20.05
2017-12-01T02:41:16.158Z,19.80
2017-12-01T02:43:44.505Z,19.62
2017-12-01T02:46:12.128Z,18.48
2017-12-01T02:48:42.598Z,18.15
2017-12-01T02:51:10.147Z,17.45
2017-12-01T02:53:37.777Z,17.30
2017-12-01T02:56:05.374Z,17.50
2017-12-01T02:58:32.946Z,17.85
2017-12-01T03:01:00.546Z,18.20
2017-12-01T03:03:28.144Z,18.20
2017-12-01T03:05:55.737Z,17.75
2017-12-01T03:08:23.343Z,19.00
2017-12-01T03:10:50.942Z,18.80
2017-12-01T03:13:18.554Z,19.00
2017-12-01T03:15:46.184Z,18.35
2017-12-01T03:18:13.782Z,20.10
2017-12-01T03:20:41.381Z,18.90
2017-12-01T03:23:09.945Z,18.70
2017-12-01T03:25:38.188Z,17.95
2017-12-01T03:28:05.799Z,19.90
2017-12-01T03:30:35.986Z,18.48
2017-12-01T03:33:03.625Z,18.62
2017-12-01T03:35:31.248Z,19.33
2017-12-01T03:37:59.892Z,18.20
2017-12-01T03:40:28.688Z,19.33
2017-12-01T03:42:57.401Z,19.52
2017-12-01T03:45:24.962Z,18.10
2017-12-01T03:47:52.533Z,18.40
2017-12-01T03:50:20.144Z,18.30
2017-12-01T03:52:49.306Z,17.52
2017-12-01T03:55:18.688Z,18.15
2017-12-01T03:57:46.311Z,18.77
2017-12-01T04:00:16.851Z,17.52
2017-12-01T04:02:47.924Z,17.27
2017-12-01T04:05:15.539Z,18.70
2017-12-01T04:07:45.368Z,19.10
2017-12-01T04:10:13.929Z,17.62
2017-12-01T04:15:15.868Z,19.40
2017-12-01T04:17:47.567Z,16.65
2017-12-01T04:20:15.143Z,16.45
2017-12-01T04:22:42.790Z,16.62
2017-12-01T04:25:10.427Z,17.42
2017-12-01T04:27:38.038Z,15.07
2017-12-01T04:30:05.602Z,17.00
2017-12-01T04:32:33.180Z,17.48
2017-12-01T04:35:00.750Z,18.15
2017-12-01T04:37:29.910Z,16.80
2017-12-01T04:39:57.646Z,16.17
2017-12-01T04:42:25.241Z,16.00
2017-12-01T04:44:52.885Z,16.62
2017-12-01T04:47:20.449Z,15.27
2017-12-01T04:49:48.673Z,14.98
2017-12-01T04:52:19.742Z,15.45
2017-12-01T04:54:48.422Z,15.70
2017-12-01T04:57:17.006Z,14.68
2017-12-01T05:04:52.065Z,16.40
2017-12-01T05:07:21.117Z,16.65
2017-12-01T05:09:48.702Z,19.62
2017-12-01T05:12:16.327Z,18.33
2017-12-01T05:14:44.769Z,18.27
2017-12-01T05:17:12.360Z,17.40
2017-12-01T05:19:39.997Z,17.37
2017-12-01T05:22:07.599Z,17.27
2017-12-01T05:24:35.986Z,17.25
2017-12-01T05:27:03.596Z,16.77
2017-12-01T05:29:31.181Z,20.08
2017-12-01T05:31:58.795Z,40.80
2017-12-01T05:34:26.380Z,65.70
2017-12-01T05:36:54.761Z,38.10
2017-12-01T05:39:23.585Z,22.75
2017-12-01T05:41:51.155Z,22.33
2017-12-01T05:44:18.737Z,22.95
2017-12-01T05:46:46.276Z,30.62
2017-12-01T05:49:13.877Z,24.12
2017-12-01T05:51:42.263Z,18.65
2017-12-01T05:54:10.608Z,18.48
2017-12-01T05:56:38.177Z,19.62
2017-12-01T05:59:05.778Z,19.08
2017-12-01T06:01:33.836Z,19.75
2017-12-01T06:04:01.610Z,19.87
2017-12-01T06:06:29.242Z,20.70
2017-12-01T06:08:56.871Z,19.08
2017-12-01T06:11:24.577Z,19.67
2017-12-01T06:13:52.194Z,18.52
2017-12-01T06:16:19.769Z,17.02
2017-12-01T06:18:47.330Z,18.10
2017-12-01T06:21:14.891Z,19.02
2017-12-01T06:23:43.643Z,18.15
2017-12-01T06:26:11.359Z,17.55
2017-12-01T06:28:40.292Z,17.65
2017-12-01T06:31:07.856Z,16.98
2017-12-01T06:33:37.752Z,17.40
2017-12-01T06:36:05.412Z,18.23
2017-12-01T06:38:33.729Z,18.83
2017-12-01T06:41:01.331Z,18.75
2017-12-01T06:43:28.919Z,17.50
2017-12-01T06:45:57.169Z,18.33
2017-12-01T06:48:26.181Z,16.30
2017-12-01T06:50:53.743Z,17.37
2017-12-01T06:53:21.345Z,17.70
2017-12-01T06:55:50.066Z,17.02
2017-12-01T07:01:12.497Z,15.43
2017-12-01T07:03:40.117Z,17.35
2017-12-01T07:06:07.714Z,19.00
2017-12-01T07:08:35.276Z,22.02
2017-12-01T07:11:02.872Z,21.48
2017-12-01T07:13:30.444Z,20.08
2017-12-01T07:15:59.470Z,20.20
2017-12-01T07:18:27.055Z,19.23
2017-12-01T07:20:54.660Z,18.73
2017-12-01T07:23:23.015Z,17.85
2017-12-01T07:25:51.709Z,19.23
2017-12-01T07:28:19.348Z,19.50
2017-12-01T07:30:46.934Z,20.17
2017-12-01T07:33:16.301Z,17.75
2017-12-01T07:35:46.057Z,19.15
2017-12-01T07:38:14.527Z,18.60
2017-12-01T07:40:42.122Z,17.90
2017-12-01T07:43:11.493Z,17.67
2017-12-01T07:45:43.630Z,19.37
2017-12-01T07:48:11.424Z,17.67
2017-12-01T07:50:41.131Z,17.52
2017-12-01T07:53:10.683Z,18.23
2017-12-01T07:55:44.050Z,18.48
2017-12-01T07:58:14.976Z,18.30
2017-12-01T08:00:42.531Z,17.12
2017-12-01T08:03:10.151Z,20.17
2017-12-01T08:05:38.645Z,21.15
2017-12-01T08:08:06.222Z,18.75
2017-12-01T08:10:35.381Z,18.30
2017-12-01T08:13:04.075Z,18.35
2017-12-01T08:15:33.351Z,18.87
2017-12-01T08:18:12.974Z,16.70
2017-12-01T08:20:40.698Z,18.27
2017-12-01T08:23:09.179Z,16.42
2017-12-01T08:25:36.735Z,16.92
2017-12-01T08:28:09.958Z,16.98
2017-12-01T08:30:37.546Z,19.25
2017-12-01T08:33:05.919Z,20.35
2017-12-01T08:35:40.460Z,20.95
2017-12-01T08:38:08.058Z,19.65
2017-12-01T08:40:38.230Z,17.10
2017-12-01T08:43:05.817Z,16.75
2017-12-01T08:45:33.499Z,17.50
2017-12-01T08:48:01.099Z,20.15
2017-12-01T08:50:31.065Z,20.40
2017-12-01T08:53:05.390Z,18.27
2017-12-01T08:55:35.021Z,19.60
2017-12-01T08:58:02.620Z,19.15
2017-12-01T09:00:30.201Z,16.67
2017-12-01T09:02:59.905Z,16.60
2017-12-01T09:05:27.523Z,15.63
2017-12-01T09:07:59.639Z,15.85
2017-12-01T09:10:28.106Z,16.10
2017-12-01T09:12:55.676Z,16.67
2017-12-01T09:15:23.905Z,16.85
2017-12-01T09:17:51.529Z,16.15
2017-12-01T09:20:22.462Z,16.62
2017-12-01T09:22:53.409Z,18.60
2017-12-01T09:25:21.985Z,18.15
2017-12-01T09:27:51.864Z,18.80
2017-12-01T09:30:22.875Z,17.20
2017-12-01T09:32:50.491Z,19.40
2017-12-01T09:35:18.087Z,18.30
2017-12-01T09:37:47.997Z,18.92
2017-12-01T09:40:16.960Z,18.30
2017-12-01T09:42:44.559Z,17.73
2017-12-01T09:45:12.226Z,18.27
2017-12-01T09:47:39.903Z,18.25
2017-12-01T09:50:07.534Z,17.60
2017-12-01T09:52:35.959Z,16.37
2017-12-01T09:55:04.276Z,17.90
2017-12-01T09:57:31.900Z,16.35
2017-12-01T10:00:00.235Z,18.12
2017-12-01T10:02:27.842Z,17.42
2017-12-01T10:04:56.368Z,17.45
2017-12-01T10:07:28.359Z,17.58
2017-12-01T10:09:59.119Z,17.23
2017-12-01T10:12:26.681Z,17.30
2017-12-01T10:14:54.294Z,18.17
2017-12-01T10:17:24.822Z,18.98
2017-12-01T10:19:52.400Z,15.43
2017-12-01T10:22:22.139Z,17.80
2017-12-01T10:24:49.730Z,16.05
2017-12-01T10:27:17.417Z,16.25
2017-12-01T10:29:45.811Z,15.18
2017-12-01T10:32:13.387Z,13.13
2017-12-01T10:34:41.912Z,13.70
2017-12-01T10:37:09.503Z,16.60
2017-12-01T10:39:40.177Z,19.52
2017-12-01T10:42:08.534Z,43.63
2017-12-01T10:44:36.136Z,21.48
2017-12-01T10:49:40.039Z,18.27
2017-12-01T10:52:07.629Z,18.60
2017-12-01T10:54:35.200Z,15.02
2017-12-01T10:57:02.796Z,17.98
2017-12-01T10:59:31.161Z,16.70
2017-12-01T11:01:58.731Z,17.17
2017-12-01T11:04:26.302Z,14.75
2017-12-01T11:06:55.266Z,15.55
2017-12-01T11:09:23.716Z,18.12
2017-12-01T11:11:54.630Z,15.00
2017-12-01T11:14:23.540Z,13.30
2017-12-01T11:16:54.547Z,11.48
2017-12-01T11:19:23.569Z,11.52
2017-12-01T11:21:52.129Z,10.65
2017-12-01T11:24:21.519Z,10.95
2017-12-01T11:26:52.130Z,10.38
2017-12-01T11:29:20.626Z,13.55
2017-12-01T11:31:54.259Z,11.27
2017-12-01T11:36:55.960Z,9.27
2017-12-01T11:39:26.598Z,10.18
2017-12-01T11:41:55.163Z,11.95
2017-12-01T11:44:23.676Z,9.68
2017-12-01T11:46:55.724Z,11.93
2017-12-01T11:49:24.225Z,10.35
2017-12-01T11:51:53.673Z,8.88
2017-12-01T11:54:21.563Z,9.00
2017-12-01T11:56:51.098Z,8.70
2017-12-01T11:59:23.530Z,8.60
2017-12-01T12:01:51.188Z,8.98
2017-12-01T12:04:23.230Z,10.68
2017-12-01T12:06:57.374Z,8.60
2017-12-01T12:09:25.668Z,8.73
2017-12-01T12:11:59.829Z,9.00
2017-12-01T12:14:34.355Z,13.40
2017-12-01T12:17:07.019Z,8.50
2017-12-01T12:19:37.081Z,8.38
2017-12-01T12:22:06.957Z,11.10
2017-12-01T12:24:40.426Z,9.65
2017-12-01T12:27:14.967Z,8.38
2017-12-01T12:29:47.035Z,13.45
2017-12-01T12:32:15.293Z,8.88
2017-12-01T12:34:46.752Z,9.90
2017-12-01T12:37:16.439Z,9.18
2017-12-01T12:39:47.856Z,8.57
2017-12-01T12:42:20.584Z,9.70
2017-12-01T12:44:49.346Z,8.57
2017-12-01T12:47:17.506Z,8.45
2017-12-01T12:49:46.858Z,9.65
2017-12-01T12:52:28.077Z,8.88
2017-12-01T12:57:34.641Z,9.35
2017-12-01T13:00:03.189Z,11.40
2017-12-01T13:02:42.553Z,15.05
2017-12-01T13:05:11.913Z,17.48
2017-12-01T13:07:40.306Z,17.37
2017-12-01T13:10:10.813Z,15.95
2017-12-01T13:12:39.192Z,20.05
2017-12-01T13:15:07.543Z,17.70
2017-12-01T13:17:38.079Z,19.15
2017-12-01T13:20:08.780Z,20.35
2017-12-01T13:27:42.734Z,18.33
2017-12-01T13:30:16.739Z,18.33
2017-12-01T13:32:45.267Z,16.30
2017-12-01T13:35:16.871Z,16.55
2017-12-01T13:37:45.938Z,21.65
2017-12-01T13:40:16.712Z,22.48
2017-12-01T13:42:49.344Z,20.83
2017-12-01T13:45:18.797Z,21.85
2017-12-01T13:47:53.766Z,19.27
2017-12-01T13:50:24.903Z,20.27
2017-12-01T13:52:53.264Z,20.88
2017-12-01T13:55:24.270Z,21.55
2017-12-01T13:57:55.912Z,22.70
2017-12-01T14:00:24.416Z,21.40
2017-12-01T14:02:56.351Z,20.90
2017-12-01T14:05:24.905Z,19.75
2017-12-01T14:07:53.247Z,20.85
2017-12-01T14:10:21.698Z,19.33
2017-12-01T14:12:50.137Z,21.37
2017-12-01T14:15:21.313Z,22.33
2017-12-01T14:17:55.667Z,22.52
2017-12-01T14:20:25.956Z,20.55
2017-12-01T14:22:54.316Z,20.75
2017-12-01T14:25:22.705Z,20.70
2017-12-01T14:27:51.174Z,19.65
2017-12-01T14:30:21.217Z,20.37
2017-12-01T14:32:48.773Z,21.67
2017-12-01T14:35:21.792Z,19.85
2017-12-01T14:37:51.186Z,21.58
2017-12-01T14:40:20.709Z,19.52
2017-12-01T14:42:49.123Z,21.35
2017-12-01T14:45:17.466Z,35.92
2017-12-01T14:47:50.419Z,35.70
2017-12-01T14:50:18.915Z,26.95
2017-12-01T14:52:48.809Z,25.58
2017-12-01T14:55:18.888Z,24.02
2017-12-01T14:57:47.307Z,22.33
2017-12-01T15:00:16.935Z,18.45
2017-12-01T15:02:52.319Z,19.15
2017-12-01T15:05:21.925Z,17.77
2017-12-01T15:07:51.635Z,19.23
2017-12-01T15:10:20.179Z,20.00
2017-12-01T15:12:48.599Z,36.92
2017-12-01T15:15:16.168Z,87.65
2017-12-01T15:17:46.155Z,52.03
2017-12-01T15:20:13.776Z,40.35
2017-12-01T15:22:46.331Z,26.35
2017-12-01T15:25:16.787Z,26.23
2017-12-01T15:27:46.000Z,21.98
2017-12-01T15:30:16.487Z,19.08
2017-12-01T15:32:44.076Z,18.17
2017-12-01T15:35:15.269Z,19.35
2017-12-01T15:37:43.801Z,19.75
2017-12-01T15:40:19.490Z,19.30
2017-12-01T15:42:47.128Z,18.27
2017-12-01T15:45:15.696Z,18.37
2017-12-01T15:47:43.320Z,18.23
2017-12-01T15:50:10.931Z,20.75
2017-12-01T15:52:38.536Z,19.70
2017-12-01T15:55:06.868Z,20.30
2017-12-01T15:57:34.555Z,23.05
2017-12-01T16:00:03.300Z,22.25
2017-12-01T16:02:31.172Z,20.37
2017-12-01T16:04:58.850Z,19.98
2017-12-01T16:07:26.972Z,20.73
2017-12-01T16:09:54.857Z,19.00
2017-12-01T16:12:26.563Z,22.23
2017-12-01T16:14:55.036Z,23.10
2017-12-01T16:17:24.441Z,23.27
2017-12-01T16:19:56.039Z,24.30
2017-12-01T16:22:23.699Z,23.62
2017-12-01T16:24:51.389Z,20.23
2017-12-01T16:27:20.487Z,20.98
2017-12-01T16:29:48.894Z,23.73
2017-12-01T16:32:17.928Z,23.65
2017-12-01T16:34:46.343Z,28.58
2017-12-01T16:37:15.588Z,27.37
2017-12-01T16:39:43.239Z,25.27
2017-12-01T16:42:10.847Z,25.35
2017-12-01T16:44:38.477Z,25.67
2017-12-01T16:47:06.099Z,24.83
2017-12-01T16:49:34.751Z,23.90
2017-12-01T16:52:03.637Z,23.38
2017-12-01T16:54:31.279Z,23.40
2017-12-01T16:56:58.910Z,24.77
2017-12-01T16:59:26.524Z,23.20
2017-12-01T17:01:54.151Z,26.98
2017-12-01T17:04:22.661Z,24.05
2017-12-01T17:06:50.245Z,23.10
2017-12-01T17:09:18.626Z,29.90
2017-12-01T17:11:46.244Z,28.30
2017-12-01T17:14:14.025Z,26.33
2017-12-01T17:16:42.391Z,25.95
2017-12-01T17:19:10.076Z,25.15
2017-12-01T17:21:37.699Z,25.08
2017-12-01T17:24:05.801Z,23.60
2017-12-01T17:26:33.365Z,24.40
2017-12-01T17:29:00.997Z,26.10
2017-12-01T17:31:28.639Z,28.15
2017-12-01T17:33:56.356Z,26.52
2017-12-01T17:36:24.354Z,26.98
2017-12-01T17:38:51.980Z,26.10
2017-12-01T17:41:19.566Z,26.77
2017-12-01T17:43:47.911Z,28.98
2017-12-01T17:46:15.483Z,26.73
2017-12-01T17:48:43.162Z,25.27
2017-12-01T17:51:10.792Z,25.17
2017-12-01T17:53:38.404Z,24.30
2017-12-01T17:56:06.843Z,22.62
2017-12-01T17:58:34.451Z,22.62
2017-12-01T18:01:03.472Z,20.65
2017-12-01T18:03:36.850Z,20.37
2017-12-01T18:06:04.462Z,17.10
2017-12-01T18:08:34.538Z,17.45
2017-12-01T18:11:02.376Z,15.95
2017-12-01T18:13:30.779Z,15.93
2017-12-01T18:15:58.426Z,16.58
2017-12-01T18:18:26.072Z,20.30
2017-12-01T18:20:53.703Z,43.87
2017-12-01T18:23:22.981Z,21.27
2017-12-01T18:25:50.814Z,21.55
2017-12-01T18:28:18.581Z,19.25
2017-12-01T18:30:47.093Z,17.60
2017-12-01T18:33:14.776Z,15.43
2017-12-01T18:35:45.266Z,15.57
2017-12-01T18:38:13.288Z,15.85
2017-12-01T18:40:41.937Z,12.82
2017-12-01T18:43:09.550Z,14.80
2017-12-01T18:45:38.711Z,14.40
2017-12-01T18:48:07.090Z,12.82
2017-12-01T18:53:12.848Z,12.52
2017-12-01T18:55:43.112Z,12.48
2017-12-01T18:58:11.913Z,12.30
2017-12-01T19:00:43.409Z,11.10
2017-12-01T19:03:11.098Z,10.68
2017-12-01T19:05:38.721Z,13.07
2017-12-01T19:08:11.695Z,13.23
2017-12-01T19:10:39.333Z,12.88
2017-12-01T19:15:40.637Z,13.45
2017-12-01T19:18:09.509Z,12.68
2017-12-01T19:20:37.168Z,12.80
2017-12-01T19:23:04.760Z,13.05
2017-12-01T19:25:36.044Z,12.27
2017-12-01T19:28:05.830Z,12.98
2017-12-01T19:30:36.721Z,13.00
2017-12-01T19:33:05.214Z,12.18
2017-12-01T19:35:35.264Z,11.85
2017-12-01T19:38:04.161Z,13.52
2017-12-01T19:40:31.908Z,12.30
2017-12-01T19:43:00.271Z,12.37
2017-12-01T19:45:28.239Z,13.50
2017-12-01T19:47:55.891Z,12.52
2017-12-01T19:50:23.539Z,12.00
2017-12-01T19:52:51.849Z,12.40
2017-12-01T19:55:19.449Z,11.45
2017-12-01T19:57:49.198Z,12.25
2017-12-01T20:00:23.098Z,13.05
2017-12-01T20:02:52.379Z,12.88
2017-12-01T20:05:19.995Z,13.40
2017-12-01T20:07:49.913Z,14.35
2017-12-01T20:10:19.162Z,14.45
2017-12-01T20:12:49.945Z,14.48
2017-12-01T20:15:17.590Z,15.13
2017-12-01T20:17:45.159Z,15.00
2017-12-01T20:20:15.086Z,17.90
2017-12-01T20:22:47.568Z,18.25
2017-12-01T20:25:16.021Z,18.90
2017-12-01T20:27:43.627Z,15.40
2017-12-01T20:30:11.868Z,14.15
2017-12-01T20:32:40.598Z,14.87
2017-12-01T20:35:08.231Z,15.27
2017-12-01T20:37:35.907Z,15.13
2017-12-01T20:40:05.052Z,14.60
2017-12-01T20:42:41.960Z,15.98
2017-12-01T20:45:10.488Z,14.07
2017-12-01T20:47:38.118Z,13.20
2017-12-01T20:50:05.742Z,12.93
2017-12-01T20:52:35.696Z,11.88
2017-12-01T20:55:04.291Z,11.88
2017-12-01T20:57:31.930Z,12.82
2017-12-01T21:00:01.622Z,11.25
2017-12-01T21:02:29.258Z,12.48
2017-12-01T21:04:59.180Z,12.25
2017-12-01T21:07:27.772Z,12.07
2017-12-01T21:09:59.955Z,13.57
2017-12-01T21:12:27.662Z,11.30
2017-12-01T21:14:55.232Z,12.15
2017-12-01T21:17:22.976Z,11.98
2017-12-01T21:19:53.587Z,11.10
2017-12-01T21:22:21.352Z,11.40
2017-12-01T21:24:50.355Z,12.23
2017-12-01T21:27:18.872Z,12.80
2017-12-01T21:29:46.619Z,13.48
2017-12-01T21:32:14.221Z,13.45
2017-12-01T21:34:42.620Z,13.60
2017-12-01T21:37:11.023Z,11.15
2017-12-01T21:39:38.751Z,13.35
2017-12-01T21:42:07.608Z,14.40
2017-12-01T21:44:36.367Z,13.52
2017-12-01T21:47:06.081Z,14.75
2017-12-01T21:49:33.775Z,14.20
2017-12-01T21:52:01.963Z,15.20
2017-12-01T21:54:29.561Z,15.38
2017-12-01T21:56:57.203Z,14.55
2017-12-01T21:59:24.755Z,15.27
2017-12-01T22:01:58.000Z,13.15
2017-12-01T22:04:25.577Z,14.18
2017-12-01T22:07:06.974Z,14.00
2017-12-01T22:09:37.044Z,15.48
2017-12-01T22:12:05.209Z,15.50
2017-12-01T22:14:32.895Z,14.95
2017-12-01T22:17:00.568Z,16.45
2017-12-01T22:19:28.195Z,15.90
2017-12-01T22:21:55.795Z,15.93
2017-12-01T22:24:23.345Z,15.75
2017-12-01T22:26:50.957Z,15.23
2017-12-01T22:29:18.546Z,16.87
2017-12-01T22:31:46.188Z,15.85
2017-12-01T22:34:13.729Z,17.08
2017-12-01T22:36:42.555Z,16.23
2017-12-01T22:39:10.180Z,16.10
2017-12-01T22:41:37.907Z,16.65
2017-12-01T22:44:05.512Z,17.85
2017-12-01T22:46:33.163Z,17.95
2017-12-01T22:49:00.766Z,16.98
2017-12-01T22:51:28.420Z,17.62
2017-12-01T22:53:55.958Z,16.85
2017-12-01T22:56:23.572Z,17.35
2017-12-01T22:58:51.138Z,16.87
2017-12-01T23:01:18.732Z,18.62
2017-12-01T23:03:46.450Z,18.12
2017-12-01T23:06:14.156Z,17.50
2017-12-01T23:08:41.719Z,19.37
2017-12-01T23:11:09.254Z,19.40
2017-12-01T23:13:36.884Z,18.50
2017-12-01T23:16:04.539Z,19.17
2017-12-01T23:18:32.168Z,19.15
2017-12-01T23:20:59.693Z,18.12
2017-12-01T23:23:30.271Z,18.30
2017-12-01T23:25:57.948Z,17.30
2017-12-01T23:28:25.539Z,16.77
2017-12-01T23:30:53.163Z,15.65
2017-12-01T23:33:20.764Z,16.73
2017-12-01T23:35:48.311Z,17.73
2017-12-01T23:38:15.903Z,18.30
2017-12-01T23:40:43.475Z,17.37
2017-12-01T23:43:11.033Z,19.08
2017-12-01T23:45:38.724Z,16.77
2017-12-01T23:48:06.380Z,19.33
2017-12-01T23:50:33.973Z,17.75
2017-12-01T23:53:01.577Z,17.60
2017-12-01T23:55:29.196Z,16.83
2017-12-01T23:57:57.486Z,16.27
